sensor_id;sensor_type;location;lat;lon;timestamp;P1;durP1;ratioP1;P2;durP2;ratioP2
15202;SDS011;7702;51.046;5.184;2023-02-21T00:02:10;38.57;;;24.53;;
15202;SDS011;7702;51.046;5.184;2023-02-21T00:04:55;39.50;;;24.37;;
15202;SDS011;7702;51.046;5.184;2023-02-21T00:07:40;40.20;;;25.30;;
15202;SDS011;7702;51.046;5.184;2023-02-21T00:10:24;40.90;;;24.20;;
15202;SDS011;7702;51.046;5.184;2023-02-21T00:13:09;39.80;;;25.60;;
15202;SDS011;7702;51.046;5.184;2023-02-21T00:15:53;41.53;;;25.33;;
15202;SDS011;7702;51.046;5.184;2023-02-21T00:18:37;35.20;;;22.80;;
15202;SDS011;7702;51.046;5.184;2023-02-21T00:21:22;40.80;;;25.13;;
15202;SDS011;7702;51.046;5.184;2023-02-21T00:24:07;38.60;;;24.03;;
15202;SDS011;7702;51.046;5.184;2023-02-21T00:26:54;42.97;;;25.97;;
15202;SDS011;7702;51.046;5.184;2023-02-21T00:29:39;36.00;;;24.10;;
15202;SDS011;7702;51.046;5.184;2023-02-21T00:32:23;41.00;;;25.23;;
15202;SDS011;7702;51.046;5.184;2023-02-21T00:35:08;40.57;;;24.13;;
15202;SDS011;7702;51.046;5.184;2023-02-21T00:37:52;43.37;;;25.87;;
15202;SDS011;7702;51.046;5.184;2023-02-21T00:40:36;39.57;;;24.57;;
15202;SDS011;7702;51.046;5.184;2023-02-21T00:43:26;43.57;;;25.97;;
15202;SDS011;7702;51.046;5.184;2023-02-21T00:46:15;42.07;;;24.70;;
15202;SDS011;7702;51.046;5.184;2023-02-21T00:48:59;49.27;;;25.97;;
15202;SDS011;7702;51.046;5.184;2023-02-21T00:51:44;44.73;;;24.67;;
15202;SDS011;7702;51.046;5.184;2023-02-21T00:54:28;46.13;;;26.40;;
15202;SDS011;7702;51.046;5.184;2023-02-21T00:57:13;46.43;;;25.13;;
15202;SDS011;7702;51.046;5.184;2023-02-21T00:59:57;44.63;;;24.60;;
15202;SDS011;7702;51.046;5.184;2023-02-21T01:02:42;42.87;;;23.37;;
15202;SDS011;7702;51.046;5.184;2023-02-21T01:05:26;40.77;;;23.50;;
15202;SDS011;7702;51.046;5.184;2023-02-21T01:08:11;45.00;;;23.67;;
15202;SDS011;7702;51.046;5.184;2023-02-21T01:10:56;41.33;;;22.03;;
15202;SDS011;7702;51.046;5.184;2023-02-21T01:13:41;41.97;;;21.10;;
15202;SDS011;7702;51.046;5.184;2023-02-21T01:16:29;42.63;;;23.60;;
15202;SDS011;7702;51.046;5.184;2023-02-21T01:19:14;39.47;;;21.90;;
15202;SDS011;7702;51.046;5.184;2023-02-21T01:21:59;37.10;;;21.37;;
15202;SDS011;7702;51.046;5.184;2023-02-21T01:24:43;35.63;;;20.07;;
15202;SDS011;7702;51.046;5.184;2023-02-21T01:27:31;39.20;;;21.53;;
15202;SDS011;7702;51.046;5.184;2023-02-21T01:30:15;37.33;;;21.53;;
15202;SDS011;7702;51.046;5.184;2023-02-21T01:32:59;42.40;;;21.97;;
15202;SDS011;7702;51.046;5.184;2023-02-21T01:35:43;38.83;;;21.43;;
15202;SDS011;7702;51.046;5.184;2023-02-21T01:38:27;40.93;;;22.30;;
15202;SDS011;7702;51.046;5.184;2023-02-21T01:41:11;36.77;;;21.47;;
15202;SDS011;7702;51.046;5.184;2023-02-21T01:43:59;33.90;;;20.37;;
15202;SDS011;7702;51.046;5.184;2023-02-21T01:46:45;39.90;;;21.00;;
15202;SDS011;7702;51.046;5.184;2023-02-21T01:49:30;40.90;;;21.50;;
15202;SDS011;7702;51.046;5.184;2023-02-21T01:52:16;38.47;;;21.57;;
15202;SDS011;7702;51.046;5.184;2023-02-21T01:55:01;43.03;;;22.93;;
15202;SDS011;7702;51.046;5.184;2023-02-21T01:57:46;39.67;;;22.30;;
15202;SDS011;7702;51.046;5.184;2023-02-21T02:00:30;44.37;;;23.97;;
15202;SDS011;7702;51.046;5.184;2023-02-21T02:03:15;42.67;;;23.17;;
15202;SDS011;7702;51.046;5.184;2023-02-21T02:06:06;43.03;;;23.07;;
15202;SDS011;7702;51.046;5.184;2023-02-21T02:08:51;41.43;;;23.33;;
15202;SDS011;7702;51.046;5.184;2023-02-21T02:11:45;40.67;;;21.47;;
15202;SDS011;7702;51.046;5.184;2023-02-21T02:17:59;38.40;;;22.13;;
15202;SDS011;7702;51.046;5.184;2023-02-21T02:45:33;49.63;;;26.20;;
15202;SDS011;7702;51.046;5.184;2023-02-21T02:50:46;54.33;;;28.23;;
15202;SDS011;7702;51.046;5.184;2023-02-21T02:53:15;55.73;;;27.60;;
15202;SDS011;7702;51.046;5.184;2023-02-21T02:55:45;55.60;;;27.77;;
15202;SDS011;7702;51.046;5.184;2023-02-21T02:58:16;55.57;;;27.63;;
15202;SDS011;7702;51.046;5.184;2023-02-21T03:00:47;57.33;;;28.17;;
15202;SDS011;7702;51.046;5.184;2023-02-21T03:03:28;60.90;;;27.73;;
15202;SDS011;7702;51.046;5.184;2023-02-21T03:09:19;61.97;;;30.37;;
15202;SDS011;7702;51.046;5.184;2023-02-21T03:11:55;61.10;;;28.87;;
15202;SDS011;7702;51.046;5.184;2023-02-21T03:14:35;64.53;;;29.40;;
15202;SDS011;7702;51.046;5.184;2023-02-21T03:17:11;61.03;;;28.93;;
15202;SDS011;7702;51.046;5.184;2023-02-21T03:19:41;62.10;;;30.33;;
15202;SDS011;7702;51.046;5.184;2023-02-21T03:22:12;62.17;;;29.67;;
15202;SDS011;7702;51.046;5.184;2023-02-21T03:24:41;60.77;;;29.40;;
15202;SDS011;7702;51.046;5.184;2023-02-21T03:27:08;59.30;;;27.97;;
15202;SDS011;7702;51.046;5.184;2023-02-21T03:29:35;57.93;;;27.03;;
15202;SDS011;7702;51.046;5.184;2023-02-21T03:32:08;62.77;;;28.93;;
15202;SDS011;7702;51.046;5.184;2023-02-21T03:34:41;67.53;;;28.70;;
15202;SDS011;7702;51.046;5.184;2023-02-21T03:37:09;63.10;;;28.63;;
15202;SDS011;7702;51.046;5.184;2023-02-21T03:39:43;57.13;;;27.57;;
15202;SDS011;7702;51.046;5.184;2023-02-21T03:42:08;60.17;;;25.60;;
15202;SDS011;7702;51.046;5.184;2023-02-21T03:44:34;66.03;;;26.80;;
15202;SDS011;7702;51.046;5.184;2023-02-21T03:47:00;63.07;;;26.53;;
15202;SDS011;7702;51.046;5.184;2023-02-21T03:49:26;58.77;;;26.63;;
15202;SDS011;7702;51.046;5.184;2023-02-21T03:51:52;61.30;;;27.27;;
15202;SDS011;7702;51.046;5.184;2023-02-21T03:54:17;58.80;;;27.23;;
15202;SDS011;7702;51.046;5.184;2023-02-21T03:56:43;60.77;;;26.60;;
15202;SDS011;7702;51.046;5.184;2023-02-21T03:59:09;65.47;;;27.70;;
15202;SDS011;7702;51.046;5.184;2023-02-21T04:01:34;54.33;;;25.47;;
15202;SDS011;7702;51.046;5.184;2023-02-21T04:04:00;58.03;;;26.13;;
15202;SDS011;7702;51.046;5.184;2023-02-21T04:06:26;60.00;;;26.27;;
15202;SDS011;7702;51.046;5.184;2023-02-21T04:08:51;59.53;;;25.57;;
15202;SDS011;7702;51.046;5.184;2023-02-21T04:11:17;52.00;;;25.53;;
15202;SDS011;7702;51.046;5.184;2023-02-21T04:13:46;56.53;;;24.37;;
15202;SDS011;7702;51.046;5.184;2023-02-21T04:16:11;52.37;;;26.37;;
15202;SDS011;7702;51.046;5.184;2023-02-21T04:18:37;59.00;;;25.00;;
15202;SDS011;7702;51.046;5.184;2023-02-21T04:21:03;57.50;;;25.73;;
15202;SDS011;7702;51.046;5.184;2023-02-21T04:23:29;55.13;;;26.27;;
15202;SDS011;7702;51.046;5.184;2023-02-21T04:25:54;54.80;;;25.00;;
15202;SDS011;7702;51.046;5.184;2023-02-21T04:28:20;55.63;;;23.80;;
15202;SDS011;7702;51.046;5.184;2023-02-21T04:30:46;57.40;;;24.90;;
15202;SDS011;7702;51.046;5.184;2023-02-21T04:33:13;52.27;;;23.97;;
15202;SDS011;7702;51.046;5.184;2023-02-21T04:35:39;55.67;;;24.40;;
15202;SDS011;7702;51.046;5.184;2023-02-21T04:38:04;60.93;;;25.77;;
15202;SDS011;7702;51.046;5.184;2023-02-21T04:40:30;56.53;;;22.93;;
15202;SDS011;7702;51.046;5.184;2023-02-21T04:42:56;57.87;;;24.53;;
15202;SDS011;7702;51.046;5.184;2023-02-21T04:45:21;61.07;;;25.90;;
15202;SDS011;7702;51.046;5.184;2023-02-21T04:47:47;58.87;;;25.27;;
15202;SDS011;7702;51.046;5.184;2023-02-21T04:50:13;59.43;;;25.43;;
15202;SDS011;7702;51.046;5.184;2023-02-21T04:52:40;51.63;;;21.67;;
15202;SDS011;7702;51.046;5.184;2023-02-21T04:55:08;58.43;;;24.83;;
15202;SDS011;7702;51.046;5.184;2023-02-21T04:57:34;56.67;;;24.30;;
15202;SDS011;7702;51.046;5.184;2023-02-21T05:00:00;49.87;;;22.67;;
15202;SDS011;7702;51.046;5.184;2023-02-21T05:02:26;49.70;;;20.10;;
15202;SDS011;7702;51.046;5.184;2023-02-21T05:04:51;48.73;;;20.07;;
15202;SDS011;7702;51.046;5.184;2023-02-21T05:07:18;46.23;;;21.63;;
15202;SDS011;7702;51.046;5.184;2023-02-21T05:09:44;47.00;;;21.67;;
15202;SDS011;7702;51.046;5.184;2023-02-21T05:12:10;43.43;;;20.47;;
15202;SDS011;7702;51.046;5.184;2023-02-21T05:14:36;47.00;;;21.43;;
15202;SDS011;7702;51.046;5.184;2023-02-21T05:17:03;46.00;;;19.20;;
15202;SDS011;7702;51.046;5.184;2023-02-21T05:19:29;41.17;;;18.07;;
15202;SDS011;7702;51.046;5.184;2023-02-21T05:21:59;41.67;;;18.67;;
15202;SDS011;7702;51.046;5.184;2023-02-21T05:24:26;39.20;;;17.87;;
15202;SDS011;7702;51.046;5.184;2023-02-21T05:26:54;40.50;;;19.33;;
15202;SDS011;7702;51.046;5.184;2023-02-21T05:29:20;38.00;;;17.20;;
15202;SDS011;7702;51.046;5.184;2023-02-21T05:31:46;39.87;;;17.60;;
15202;SDS011;7702;51.046;5.184;2023-02-21T05:34:13;38.93;;;17.13;;
15202;SDS011;7702;51.046;5.184;2023-02-21T05:36:40;38.70;;;17.10;;
15202;SDS011;7702;51.046;5.184;2023-02-21T05:39:06;40.70;;;17.27;;
15202;SDS011;7702;51.046;5.184;2023-02-21T05:41:33;41.20;;;17.47;;
15202;SDS011;7702;51.046;5.184;2023-02-21T05:43:59;34.13;;;15.63;;
15202;SDS011;7702;51.046;5.184;2023-02-21T05:46:29;32.57;;;15.70;;
15202;SDS011;7702;51.046;5.184;2023-02-21T05:48:57;31.97;;;15.70;;
15202;SDS011;7702;51.046;5.184;2023-02-21T05:51:25;34.03;;;15.20;;
15202;SDS011;7702;51.046;5.184;2023-02-21T05:53:51;35.37;;;15.90;;
15202;SDS011;7702;51.046;5.184;2023-02-21T05:56:17;34.53;;;16.00;;
15202;SDS011;7702;51.046;5.184;2023-02-21T05:58:45;32.93;;;16.50;;
15202;SDS011;7702;51.046;5.184;2023-02-21T06:01:11;31.13;;;15.30;;
15202;SDS011;7702;51.046;5.184;2023-02-21T06:03:37;31.53;;;15.93;;
15202;SDS011;7702;51.046;5.184;2023-02-21T06:06:02;30.30;;;14.87;;
15202;SDS011;7702;51.046;5.184;2023-02-21T06:08:28;33.23;;;15.47;;
15202;SDS011;7702;51.046;5.184;2023-02-21T06:10:54;35.97;;;16.00;;
15202;SDS011;7702;51.046;5.184;2023-02-21T06:13:20;30.47;;;14.57;;
15202;SDS011;7702;51.046;5.184;2023-02-21T06:15:46;33.00;;;15.23;;
15202;SDS011;7702;51.046;5.184;2023-02-21T06:18:13;33.07;;;14.77;;
15202;SDS011;7702;51.046;5.184;2023-02-21T06:20:39;28.23;;;14.30;;
15202;SDS011;7702;51.046;5.184;2023-02-21T06:23:05;27.30;;;13.73;;
15202;SDS011;7702;51.046;5.184;2023-02-21T06:25:31;26.37;;;13.50;;
15202;SDS011;7702;51.046;5.184;2023-02-21T06:27:56;29.10;;;14.43;;
15202;SDS011;7702;51.046;5.184;2023-02-21T06:30:23;25.80;;;13.40;;
15202;SDS011;7702;51.046;5.184;2023-02-21T06:32:48;27.10;;;13.63;;
15202;SDS011;7702;51.046;5.184;2023-02-21T06:35:14;29.77;;;13.90;;
15202;SDS011;7702;51.046;5.184;2023-02-21T06:37:40;31.27;;;14.67;;
15202;SDS011;7702;51.046;5.184;2023-02-21T06:40:06;29.87;;;14.13;;
15202;SDS011;7702;51.046;5.184;2023-02-21T06:42:33;28.83;;;13.07;;
15202;SDS011;7702;51.046;5.184;2023-02-21T06:44:58;26.73;;;13.10;;
15202;SDS011;7702;51.046;5.184;2023-02-21T06:47:24;25.17;;;13.00;;
15202;SDS011;7702;51.046;5.184;2023-02-21T06:49:50;23.83;;;12.27;;
15202;SDS011;7702;51.046;5.184;2023-02-21T06:52:16;23.80;;;12.80;;
15202;SDS011;7702;51.046;5.184;2023-02-21T06:54:42;24.87;;;13.23;;
15202;SDS011;7702;51.046;5.184;2023-02-21T06:57:08;24.13;;;12.50;;
15202;SDS011;7702;51.046;5.184;2023-02-21T06:59:34;22.93;;;12.67;;
15202;SDS011;7702;51.046;5.184;2023-02-21T07:02:00;21.27;;;11.23;;
15202;SDS011;7702;51.046;5.184;2023-02-21T07:04:28;21.10;;;11.53;;
15202;SDS011;7702;51.046;5.184;2023-02-21T07:06:54;21.57;;;11.77;;
15202;SDS011;7702;51.046;5.184;2023-02-21T07:09:20;19.07;;;11.37;;
15202;SDS011;7702;51.046;5.184;2023-02-21T07:11:46;18.97;;;10.40;;
15202;SDS011;7702;51.046;5.184;2023-02-21T07:14:12;20.63;;;10.63;;
15202;SDS011;7702;51.046;5.184;2023-02-21T07:16:38;19.60;;;10.70;;
15202;SDS011;7702;51.046;5.184;2023-02-21T07:19:04;20.87;;;11.43;;
15202;SDS011;7702;51.046;5.184;2023-02-21T07:21:30;22.20;;;10.77;;
15202;SDS011;7702;51.046;5.184;2023-02-21T07:23:56;20.53;;;10.70;;
15202;SDS011;7702;51.046;5.184;2023-02-21T07:26:21;20.50;;;10.63;;
15202;SDS011;7702;51.046;5.184;2023-02-21T07:28:47;18.40;;;10.70;;
15202;SDS011;7702;51.046;5.184;2023-02-21T07:31:13;22.23;;;10.97;;
15202;SDS011;7702;51.046;5.184;2023-02-21T07:33:40;16.77;;;10.07;;
15202;SDS011;7702;51.046;5.184;2023-02-21T07:36:06;17.70;;;10.03;;
15202;SDS011;7702;51.046;5.184;2023-02-21T07:38:32;17.87;;;9.57;;
15202;SDS011;7702;51.046;5.184;2023-02-21T07:40:59;16.67;;;8.93;;
15202;SDS011;7702;51.046;5.184;2023-02-21T07:43:27;16.00;;;8.90;;
15202;SDS011;7702;51.046;5.184;2023-02-21T07:45:54;15.43;;;9.13;;
15202;SDS011;7702;51.046;5.184;2023-02-21T07:48:21;16.37;;;9.93;;
15202;SDS011;7702;51.046;5.184;2023-02-21T07:50:47;15.63;;;9.07;;
15202;SDS011;7702;51.046;5.184;2023-02-21T07:53:14;19.00;;;9.97;;
15202;SDS011;7702;51.046;5.184;2023-02-21T07:55:40;18.57;;;9.17;;
15202;SDS011;7702;51.046;5.184;2023-02-21T07:58:06;14.33;;;8.10;;
15202;SDS011;7702;51.046;5.184;2023-02-21T08:00:32;15.63;;;8.17;;
15202;SDS011;7702;51.046;5.184;2023-02-21T08:02:58;17.27;;;9.70;;
15202;SDS011;7702;51.046;5.184;2023-02-21T08:05:24;19.40;;;14.00;;
15202;SDS011;7702;51.046;5.184;2023-02-21T08:07:50;21.17;;;18.67;;
15202;SDS011;7702;51.046;5.184;2023-02-21T08:10:23;15.80;;;11.13;;
15202;SDS011;7702;51.046;5.184;2023-02-21T08:12:51;24.97;;;21.50;;
15202;SDS011;7702;51.046;5.184;2023-02-21T08:15:17;23.47;;;18.87;;
15202;SDS011;7702;51.046;5.184;2023-02-21T08:17:43;16.33;;;10.27;;
15202;SDS011;7702;51.046;5.184;2023-02-21T08:20:11;15.87;;;9.43;;
15202;SDS011;7702;51.046;5.184;2023-02-21T08:22:37;14.33;;;9.63;;
15202;SDS011;7702;51.046;5.184;2023-02-21T08:25:03;15.53;;;8.40;;
15202;SDS011;7702;51.046;5.184;2023-02-21T08:27:29;27.83;;;22.87;;
15202;SDS011;7702;51.046;5.184;2023-02-21T08:29:55;19.50;;;17.53;;
15202;SDS011;7702;51.046;5.184;2023-02-21T08:32:21;10.53;;;7.07;;
15202;SDS011;7702;51.046;5.184;2023-02-21T08:34:47;11.30;;;9.17;;
15202;SDS011;7702;51.046;5.184;2023-02-21T08:37:13;16.07;;;14.50;;
15202;SDS011;7702;51.046;5.184;2023-02-21T08:39:46;9.63;;;7.47;;
15202;SDS011;7702;51.046;5.184;2023-02-21T08:42:13;8.73;;;6.40;;
15202;SDS011;7702;51.046;5.184;2023-02-21T08:44:41;8.47;;;6.13;;
15202;SDS011;7702;51.046;5.184;2023-02-21T08:47:08;9.50;;;5.70;;
15202;SDS011;7702;51.046;5.184;2023-02-21T08:49:34;8.70;;;5.70;;
15202;SDS011;7702;51.046;5.184;2023-02-21T08:52:04;9.53;;;7.67;;
15202;SDS011;7702;51.046;5.184;2023-02-21T08:54:30;8.13;;;5.60;;
15202;SDS011;7702;51.046;5.184;2023-02-21T08:56:56;9.37;;;5.80;;
15202;SDS011;7702;51.046;5.184;2023-02-21T08:59:22;9.77;;;6.73;;
15202;SDS011;7702;51.046;5.184;2023-02-21T09:01:49;9.37;;;6.00;;
15202;SDS011;7702;51.046;5.184;2023-02-21T09:04:14;11.73;;;7.13;;
15202;SDS011;7702;51.046;5.184;2023-02-21T09:06:40;10.93;;;7.63;;
15202;SDS011;7702;51.046;5.184;2023-02-21T09:09:06;11.60;;;8.47;;
15202;SDS011;7702;51.046;5.184;2023-02-21T09:11:32;9.70;;;6.83;;
15202;SDS011;7702;51.046;5.184;2023-02-21T09:13:58;9.77;;;6.83;;
15202;SDS011;7702;51.046;5.184;2023-02-21T09:16:23;10.40;;;7.20;;
15202;SDS011;7702;51.046;5.184;2023-02-21T09:18:56;11.43;;;7.67;;
15202;SDS011;7702;51.046;5.184;2023-02-21T09:21:26;10.27;;;6.77;;
15202;SDS011;7702;51.046;5.184;2023-02-21T09:23:53;10.47;;;7.13;;
15202;SDS011;7702;51.046;5.184;2023-02-21T09:26:20;10.40;;;7.10;;
15202;SDS011;7702;51.046;5.184;2023-02-21T09:28:48;11.17;;;7.27;;
15202;SDS011;7702;51.046;5.184;2023-02-21T09:31:15;11.27;;;8.43;;
15202;SDS011;7702;51.046;5.184;2023-02-21T09:33:42;11.87;;;8.93;;
15202;SDS011;7702;51.046;5.184;2023-02-21T09:36:08;13.37;;;8.53;;
15202;SDS011;7702;51.046;5.184;2023-02-21T09:38:34;12.87;;;8.00;;
15202;SDS011;7702;51.046;5.184;2023-02-21T09:41:00;14.13;;;8.20;;
15202;SDS011;7702;51.046;5.184;2023-02-21T09:46:01;14.83;;;8.97;;
15202;SDS011;7702;51.046;5.184;2023-02-21T09:48:30;15.57;;;8.90;;
15202;SDS011;7702;51.046;5.184;2023-02-21T09:50:58;15.93;;;9.30;;
15202;SDS011;7702;51.046;5.184;2023-02-21T09:53:29;14.30;;;8.47;;
15202;SDS011;7702;51.046;5.184;2023-02-21T09:56:04;16.63;;;9.23;;
15202;SDS011;7702;51.046;5.184;2023-02-21T09:58:37;15.83;;;9.90;;
15202;SDS011;7702;51.046;5.184;2023-02-21T10:01:11;16.80;;;9.97;;
15202;SDS011;7702;51.046;5.184;2023-02-21T10:06:42;17.73;;;8.73;;
15202;SDS011;7702;51.046;5.184;2023-02-21T10:20:21;15.60;;;8.40;;
15202;SDS011;7702;51.046;5.184;2023-02-21T10:22:59;14.83;;;9.43;;
15202;SDS011;7702;51.046;5.184;2023-02-21T10:25:29;13.47;;;8.53;;
15202;SDS011;7702;51.046;5.184;2023-02-21T10:27:57;12.10;;;7.83;;
15202;SDS011;7702;51.046;5.184;2023-02-21T10:30:34;10.50;;;7.17;;
15202;SDS011;7702;51.046;5.184;2023-02-21T10:33:01;13.33;;;8.47;;
15202;SDS011;7702;51.046;5.184;2023-02-21T10:35:31;15.37;;;9.47;;
15202;SDS011;7702;51.046;5.184;2023-02-21T10:37:58;17.63;;;10.80;;
15202;SDS011;7702;51.046;5.184;2023-02-21T10:48:41;14.10;;;9.67;;
15202;SDS011;7702;51.046;5.184;2023-02-21T10:51:12;13.47;;;8.27;;
15202;SDS011;7702;51.046;5.184;2023-02-21T10:53:53;18.00;;;8.77;;
15202;SDS011;7702;51.046;5.184;2023-02-21T10:56:38;13.97;;;7.90;;
15202;SDS011;7702;51.046;5.184;2023-02-21T10:59:05;14.67;;;8.73;;
15202;SDS011;7702;51.046;5.184;2023-02-21T11:01:33;14.40;;;7.90;;
15202;SDS011;7702;51.046;5.184;2023-02-21T11:04:03;14.37;;;8.17;;
15202;SDS011;7702;51.046;5.184;2023-02-21T11:06:35;15.23;;;8.40;;
15202;SDS011;7702;51.046;5.184;2023-02-21T11:09:22;19.97;;;8.63;;
15202;SDS011;7702;51.046;5.184;2023-02-21T11:14:46;20.00;;;10.43;;
15202;SDS011;7702;51.046;5.184;2023-02-21T11:17:30;21.63;;;11.13;;
15202;SDS011;7702;51.046;5.184;2023-02-21T11:22:41;25.10;;;10.60;;
15202;SDS011;7702;51.046;5.184;2023-02-21T11:25:28;20.83;;;10.20;;
15202;SDS011;7702;51.046;5.184;2023-02-21T11:28:03;23.87;;;11.30;;
15202;SDS011;7702;51.046;5.184;2023-02-21T11:30:39;22.80;;;9.83;;
15202;SDS011;7702;51.046;5.184;2023-02-21T11:33:17;21.30;;;9.60;;
15202;SDS011;7702;51.046;5.184;2023-02-21T11:35:46;17.00;;;9.23;;
15202;SDS011;7702;51.046;5.184;2023-02-21T11:38:34;16.60;;;9.17;;
15202;SDS011;7702;51.046;5.184;2023-02-21T11:49:39;22.57;;;10.07;;
15202;SDS011;7702;51.046;5.184;2023-02-21T11:52:14;21.83;;;10.17;;
15202;SDS011;7702;51.046;5.184;2023-02-21T11:54:48;20.10;;;10.10;;
15202;SDS011;7702;51.046;5.184;2023-02-21T12:00:11;23.70;;;10.97;;
15202;SDS011;7702;51.046;5.184;2023-02-21T12:02:52;25.07;;;12.37;;
15202;SDS011;7702;51.046;5.184;2023-02-21T12:05:40;21.23;;;9.90;;
15202;SDS011;7702;51.046;5.184;2023-02-21T12:29:30;22.27;;;10.67;;
15202;SDS011;7702;51.046;5.184;2023-02-21T12:32:24;32.23;;;23.80;;
15202;SDS011;7702;51.046;5.184;2023-02-21T12:40:32;24.33;;;12.17;;
15202;SDS011;7702;51.046;5.184;2023-02-21T12:45:53;27.40;;;18.03;;
15202;SDS011;7702;51.046;5.184;2023-02-21T12:51:27;20.23;;;11.57;;
15202;SDS011;7702;51.046;5.184;2023-02-21T12:54:00;24.27;;;13.47;;
15202;SDS011;7702;51.046;5.184;2023-02-21T13:02:07;23.13;;;11.70;;
15202;SDS011;7702;51.046;5.184;2023-02-21T13:04:54;20.50;;;10.73;;
15202;SDS011;7702;51.046;5.184;2023-02-21T13:12:42;26.80;;;11.97;;
15202;SDS011;7702;51.046;5.184;2023-02-21T13:17:43;26.73;;;13.60;;
15202;SDS011;7702;51.046;5.184;2023-02-21T13:20:17;25.10;;;11.67;;
15202;SDS011;7702;51.046;5.184;2023-02-21T13:26:02;30.27;;;13.53;;
15202;SDS011;7702;51.046;5.184;2023-02-21T13:28:43;30.13;;;13.67;;
15202;SDS011;7702;51.046;5.184;2023-02-21T13:31:20;29.47;;;13.83;;
15202;SDS011;7702;51.046;5.184;2023-02-21T13:33:59;30.30;;;13.17;;
15202;SDS011;7702;51.046;5.184;2023-02-21T13:36:30;31.80;;;13.70;;
15202;SDS011;7702;51.046;5.184;2023-02-21T13:41:43;25.60;;;11.37;;
15202;SDS011;7702;51.046;5.184;2023-02-21T13:46:59;22.17;;;10.50;;
15202;SDS011;7702;51.046;5.184;2023-02-21T14:06:18;20.30;;;9.77;;
15202;SDS011;7702;51.046;5.184;2023-02-21T14:19:25;23.80;;;11.03;;
15202;SDS011;7702;51.046;5.184;2023-02-21T14:24:48;20.63;;;10.27;;
15202;SDS011;7702;51.046;5.184;2023-02-21T14:29:43;17.30;;;9.77;;
15202;SDS011;7702;51.046;5.184;2023-02-21T14:32:51;16.83;;;9.03;;
15202;SDS011;7702;51.046;5.184;2023-02-21T14:40:32;17.50;;;8.80;;
15202;SDS011;7702;51.046;5.184;2023-02-21T15:05:55;14.93;;;8.10;;
15202;SDS011;7702;51.046;5.184;2023-02-21T15:08:38;15.80;;;8.67;;
15202;SDS011;7702;51.046;5.184;2023-02-21T15:11:17;15.80;;;8.67;;
15202;SDS011;7702;51.046;5.184;2023-02-21T15:14:10;14.60;;;8.90;;
15202;SDS011;7702;51.046;5.184;2023-02-21T15:16:54;14.53;;;8.13;;
15202;SDS011;7702;51.046;5.184;2023-02-21T15:19:32;14.70;;;9.07;;
15202;SDS011;7702;51.046;5.184;2023-02-21T15:27:32;13.50;;;8.90;;
15202;SDS011;7702;51.046;5.184;2023-02-21T15:30:06;16.03;;;9.03;;
15202;SDS011;7702;51.046;5.184;2023-02-21T15:32:39;16.23;;;8.80;;
15202;SDS011;7702;51.046;5.184;2023-02-21T15:35:06;17.17;;;10.03;;
15202;SDS011;7702;51.046;5.184;2023-02-21T15:37:37;17.87;;;10.77;;
15202;SDS011;7702;51.046;5.184;2023-02-21T15:40:12;17.43;;;10.10;;
15202;SDS011;7702;51.046;5.184;2023-02-21T15:42:41;18.97;;;10.13;;
15202;SDS011;7702;51.046;5.184;2023-02-21T15:45:31;19.40;;;10.83;;
15202;SDS011;7702;51.046;5.184;2023-02-21T15:47:57;19.83;;;10.47;;
15202;SDS011;7702;51.046;5.184;2023-02-21T15:50:46;20.73;;;10.80;;
15202;SDS011;7702;51.046;5.184;2023-02-21T15:53:15;17.33;;;10.73;;
15202;SDS011;7702;51.046;5.184;2023-02-21T15:55:43;19.27;;;10.63;;
15202;SDS011;7702;51.046;5.184;2023-02-21T15:58:15;20.53;;;11.07;;
15202;SDS011;7702;51.046;5.184;2023-02-21T16:06:08;22.97;;;14.60;;
15202;SDS011;7702;51.046;5.184;2023-02-21T16:08:38;23.17;;;12.47;;
15202;SDS011;7702;51.046;5.184;2023-02-21T16:11:14;19.60;;;11.13;;
15202;SDS011;7702;51.046;5.184;2023-02-21T16:13:41;20.30;;;10.93;;
15202;SDS011;7702;51.046;5.184;2023-02-21T16:16:07;21.50;;;11.53;;
15202;SDS011;7702;51.046;5.184;2023-02-21T16:18:33;23.80;;;16.43;;
15202;SDS011;7702;51.046;5.184;2023-02-21T16:21:00;20.13;;;12.27;;
15202;SDS011;7702;51.046;5.184;2023-02-21T16:25:59;20.97;;;11.57;;
15202;SDS011;7702;51.046;5.184;2023-02-21T16:28:36;24.27;;;12.73;;
15202;SDS011;7702;51.046;5.184;2023-02-21T16:31:07;20.70;;;11.33;;
15202;SDS011;7702;51.046;5.184;2023-02-21T16:33:38;19.93;;;11.40;;
15202;SDS011;7702;51.046;5.184;2023-02-21T16:36:05;22.03;;;12.03;;
15202;SDS011;7702;51.046;5.184;2023-02-21T16:38:33;24.63;;;11.97;;
15202;SDS011;7702;51.046;5.184;2023-02-21T16:40:59;21.77;;;12.17;;
15202;SDS011;7702;51.046;5.184;2023-02-21T16:43:25;22.80;;;12.53;;
15202;SDS011;7702;51.046;5.184;2023-02-21T16:45:53;21.93;;;12.20;;
15202;SDS011;7702;51.046;5.184;2023-02-21T16:48:22;23.87;;;12.43;;
15202;SDS011;7702;51.046;5.184;2023-02-21T16:50:52;21.27;;;12.90;;
15202;SDS011;7702;51.046;5.184;2023-02-21T16:53:19;22.53;;;12.83;;
15202;SDS011;7702;51.046;5.184;2023-02-21T16:55:46;22.40;;;13.57;;
15202;SDS011;7702;51.046;5.184;2023-02-21T17:01:21;21.93;;;11.07;;
15202;SDS011;7702;51.046;5.184;2023-02-21T17:03:51;20.43;;;11.77;;
15202;SDS011;7702;51.046;5.184;2023-02-21T17:06:18;22.07;;;12.23;;
15202;SDS011;7702;51.046;5.184;2023-02-21T17:08:45;20.03;;;11.23;;
15202;SDS011;7702;51.046;5.184;2023-02-21T17:11:12;21.17;;;11.60;;
15202;SDS011;7702;51.046;5.184;2023-02-21T17:13:38;18.40;;;10.67;;
15202;SDS011;7702;51.046;5.184;2023-02-21T17:16:04;19.93;;;11.70;;
15202;SDS011;7702;51.046;5.184;2023-02-21T17:18:30;20.93;;;11.63;;
15202;SDS011;7702;51.046;5.184;2023-02-21T17:20:57;18.43;;;11.57;;
15202;SDS011;7702;51.046;5.184;2023-02-21T17:23:23;21.90;;;11.93;;
15202;SDS011;7702;51.046;5.184;2023-02-21T17:25:49;20.43;;;11.43;;
15202;SDS011;7702;51.046;5.184;2023-02-21T17:28:15;20.83;;;12.20;;
15202;SDS011;7702;51.046;5.184;2023-02-21T17:30:41;22.43;;;12.43;;
15202;SDS011;7702;51.046;5.184;2023-02-21T17:33:08;22.60;;;11.80;;
15202;SDS011;7702;51.046;5.184;2023-02-21T17:35:35;29.13;;;24.83;;
15202;SDS011;7702;51.046;5.184;2023-02-21T17:38:01;24.43;;;15.93;;
15202;SDS011;7702;51.046;5.184;2023-02-21T17:40:28;24.70;;;13.43;;
15202;SDS011;7702;51.046;5.184;2023-02-21T17:42:55;22.03;;;13.53;;
15202;SDS011;7702;51.046;5.184;2023-02-21T17:45:21;24.37;;;13.03;;
15202;SDS011;7702;51.046;5.184;2023-02-21T17:47:47;25.40;;;13.23;;
15202;SDS011;7702;51.046;5.184;2023-02-21T17:50:15;25.30;;;14.07;;
15202;SDS011;7702;51.046;5.184;2023-02-21T17:52:42;24.77;;;14.13;;
15202;SDS011;7702;51.046;5.184;2023-02-21T17:55:09;62.00;;;47.17;;
15202;SDS011;7702;51.046;5.184;2023-02-21T17:57:42;50.93;;;40.80;;
15202;SDS011;7702;51.046;5.184;2023-02-21T18:00:09;31.50;;;22.33;;
15202;SDS011;7702;51.046;5.184;2023-02-21T18:02:40;27.73;;;16.70;;
15202;SDS011;7702;51.046;5.184;2023-02-21T18:05:06;25.80;;;15.00;;
15202;SDS011;7702;51.046;5.184;2023-02-21T18:07:35;24.50;;;14.63;;
15202;SDS011;7702;51.046;5.184;2023-02-21T18:10:01;24.37;;;14.97;;
15202;SDS011;7702;51.046;5.184;2023-02-21T18:12:28;23.00;;;13.70;;
15202;SDS011;7702;51.046;5.184;2023-02-21T18:14:57;23.97;;;13.23;;
15202;SDS011;7702;51.046;5.184;2023-02-21T18:17:23;25.67;;;14.80;;
15202;SDS011;7702;51.046;5.184;2023-02-21T18:19:49;24.40;;;13.83;;
15202;SDS011;7702;51.046;5.184;2023-02-21T18:22:15;24.33;;;14.37;;
15202;SDS011;7702;51.046;5.184;2023-02-21T18:24:41;27.67;;;14.93;;
15202;SDS011;7702;51.046;5.184;2023-02-21T18:27:07;25.43;;;14.53;;
15202;SDS011;7702;51.046;5.184;2023-02-21T18:29:34;24.80;;;14.80;;
15202;SDS011;7702;51.046;5.184;2023-02-21T18:32:00;27.30;;;14.67;;